createdAt,value
2019-06-27T00:00:53.158Z,26.26
2019-06-27T00:01:53.164Z,26.22
2019-06-27T00:02:53.298Z,26.25
2019-06-27T00:03:53.026Z,26.22
2019-06-27T00:04:52.986Z,26.15
2019-06-27T00:05:53.007Z,26.16
2019-06-27T00:06:53.036Z,26.13
2019-06-27T00:07:53.321Z,26.15
2019-06-27T00:08:53.089Z,26.09
2019-06-27T00:09:53.168Z,26.05
2019-06-27T00:10:53.189Z,26.09
2019-06-27T00:11:53.168Z,26.09
2019-06-27T00:12:53.198Z,26.05
2019-06-27T00:13:53.225Z,26.05
2019-06-27T00:14:53.511Z,26.03
2019-06-27T00:15:53.539Z,26.02
2019-06-27T00:16:53.305Z,26
2019-06-27T00:17:53.335Z,25.98
2019-06-27T00:18:53.619Z,25.98
2019-06-27T00:19:53.119Z,25.93
2019-06-27T00:20:53.423Z,25.93
2019-06-27T00:21:53.704Z,25.96
2019-06-27T00:22:53.461Z,25.98
2019-06-27T00:23:53.225Z,25.91
2019-06-27T00:24:53.249Z,25.95
2019-06-27T00:25:53.539Z,25.95
2019-06-27T00:27:02.075Z,25.93
2019-06-27T00:27:53.611Z,25.98
2019-06-27T00:28:53.365Z,25.88
2019-06-27T00:29:53.668Z,25.84
2019-06-27T00:30:53.946Z,25.87
2019-06-27T00:31:54.017Z,25.88
2019-06-27T00:32:53.723Z,25.83
2019-06-27T00:33:54.045Z,25.88
2019-06-27T00:34:53.780Z,25.93
2019-06-27T00:35:54.066Z,25.91
2019-06-27T00:36:53.572Z,25.77
2019-06-27T00:37:53.857Z,25.83
2019-06-27T00:38:54.144Z,25.8
2019-06-27T00:39:53.915Z,25.75
2019-06-27T00:40:53.941Z,25.69
2019-06-27T00:41:53.974Z,25.7
2019-06-27T00:42:54.279Z,25.66
2019-06-27T00:43:54.022Z,25.66
2019-06-27T00:44:54.042Z,25.66
2019-06-27T00:45:54.072Z,25.68
2019-06-27T00:46:54.148Z,25.7
2019-06-27T00:47:54.126Z,25.66
2019-06-27T00:48:54.413Z,25.68
2019-06-27T00:49:54.193Z,25.54
2019-06-27T00:50:54.474Z,25.55
2019-06-27T00:51:54.251Z,25.6
2019-06-27T00:52:54.516Z,25.5
2019-06-27T00:53:54.024Z,25.54
2019-06-27T00:54:54.047Z,25.55
2019-06-27T00:55:54.596Z,25.58
2019-06-27T00:56:54.632Z,25.51
2019-06-27T00:57:54.655Z,25.47
2019-06-27T00:58:54.411Z,25.4
2019-06-27T00:59:54.706Z,25.44
2019-06-27T01:00:54.469Z,25.41
2019-06-27T01:01:54.765Z,25.44
2019-06-27T01:02:54.526Z,25.35
2019-06-27T01:03:54.282Z,25.4
2019-06-27T01:04:54.847Z,25.35
2019-06-27T01:05:54.611Z,25.35
2019-06-27T01:06:54.883Z,25.4
2019-06-27T01:07:54.677Z,25.36
2019-06-27T01:08:54.675Z,25.38
2019-06-27T01:09:54.969Z,25.38
2019-06-27T01:10:54.732Z,25.38
2019-06-27T01:11:54.758Z,25.36
2019-06-27T01:12:55.142Z,25.33
2019-06-27T01:13:54.813Z,25.31
2019-06-27T01:14:55.154Z,25.29
2019-06-27T01:15:54.868Z,25.23
2019-06-27T01:16:54.627Z,25.35
2019-06-27T01:17:54.920Z,25.22
2019-06-27T01:18:54.676Z,25.31
2019-06-27T01:19:54.705Z,25.28
2019-06-27T01:20:54.993Z,25.33
2019-06-27T01:21:55.017Z,25.29
2019-06-27T01:22:54.780Z,25.26
2019-06-27T01:23:54.816Z,25.21
2019-06-27T01:24:55.104Z,25.25
2019-06-27T01:25:55.119Z,25.14
2019-06-27T01:26:54.888Z,25.16
2019-06-27T01:27:55.436Z,25.21
2019-06-27T01:28:55.208Z,25.14
2019-06-27T01:29:55.490Z,25.16
2019-06-27T01:30:55.252Z,25.18
2019-06-27T01:31:55.287Z,25.13
2019-06-27T01:32:55.046Z,25.08
2019-06-27T01:33:55.331Z,25.13
2019-06-27T01:34:55.622Z,25.11
2019-06-27T01:35:55.380Z,25.06
2019-06-27T01:36:55.500Z,25.13
2019-06-27T01:37:55.705Z,25.07
2019-06-27T01:38:55.718Z,25.01
2019-06-27T01:39:55.493Z,25.08
2019-06-27T01:40:55.541Z,25.08
2019-06-27T01:41:55.295Z,24.98
2019-06-27T01:42:55.826Z,25.03
2019-06-27T01:43:57.390Z,24.99
2019-06-27T01:44:55.635Z,24.99
2019-06-27T01:45:56.024Z,25.04
2019-06-27T01:46:55.938Z,24.96
2019-06-27T01:47:55.698Z,25.03
2019-06-27T01:48:55.458Z,24.99
2019-06-27T01:49:55.492Z,24.99
2019-06-27T01:50:55.785Z,24.99
2019-06-27T01:51:55.804Z,24.85
2019-06-27T01:52:55.841Z,24.88
2019-06-27T01:53:55.852Z,24.89
2019-06-27T01:54:55.880Z,24.91
2019-06-27T01:55:55.656Z,24.91
2019-06-27T01:56:55.939Z,24.89
2019-06-27T01:57:55.962Z,24.86
2019-06-27T01:58:55.985Z,24.88
2019-06-27T01:59:56.027Z,24.88
2019-06-27T02:00:56.305Z,24.81
2019-06-27T02:01:55.808Z,24.81
2019-06-27T02:02:55.823Z,24.86
2019-06-27T02:03:56.115Z,24.84
2019-06-27T02:04:56.147Z,24.85
2019-06-27T02:05:56.427Z,24.86
2019-06-27T02:06:56.191Z,24.86
2019-06-27T02:07:56.214Z,24.84
2019-06-27T02:08:56.248Z,24.81
2019-06-27T02:09:56.271Z,24.77
2019-06-27T02:10:56.319Z,24.78
2019-06-27T02:11:56.604Z,24.85
2019-06-27T02:12:56.347Z,24.8
2019-06-27T02:13:56.636Z,24.74
2019-06-27T02:14:56.701Z,24.76
2019-06-27T02:15:56.431Z,24.76
2019-06-27T02:16:56.450Z,24.74
2019-06-27T02:17:56.480Z,24.68
2019-06-27T02:18:56.502Z,24.73
2019-06-27T02:19:56.269Z,24.68
2019-06-27T02:20:56.818Z,24.66
2019-06-27T02:21:56.314Z,24.66
2019-06-27T02:22:56.462Z,24.73
2019-06-27T02:23:56.896Z,24.65
2019-06-27T02:24:56.395Z,24.63
2019-06-27T02:25:56.957Z,24.63
2019-06-27T02:26:56.966Z,24.65
2019-06-27T02:28:07.933Z,24.61
2019-06-27T02:28:56.760Z,24.63
2019-06-27T02:29:56.786Z,24.66
2019-06-27T02:30:56.822Z,24.61
2019-06-27T02:31:56.857Z,24.63
2019-06-27T02:32:57.143Z,24.61
2019-06-27T02:33:57.158Z,24.6
2019-06-27T02:34:56.664Z,24.61
2019-06-27T02:35:56.941Z,24.6
2019-06-27T02:36:57.235Z,24.5
2019-06-27T02:37:57.290Z,24.53
2019-06-27T02:38:57.306Z,24.6
2019-06-27T02:39:57.336Z,24.5
2019-06-27T02:41:01.108Z,24.5
2019-06-27T02:41:57.626Z,24.42
2019-06-27T02:42:57.408Z,24.51
2019-06-27T02:43:56.899Z,24.42
2019-06-27T02:44:57.283Z,24.51
2019-06-27T02:45:57.320Z,24.55
2019-06-27T02:46:57.296Z,24.51
2019-06-27T02:47:57.525Z,24.54
2019-06-27T02:48:57.550Z,24.48
2019-06-27T02:49:57.333Z,24.45
2019-06-27T02:50:57.591Z,24.5
2019-06-27T02:51:57.645Z,24.48
2019-06-27T02:52:57.383Z,24.45
2019-06-27T02:53:57.674Z,24.39
2019-06-27T02:54:57.275Z,24.4
2019-06-27T02:55:57.474Z,24.4
2019-06-27T02:56:57.488Z,24.42
2019-06-27T02:57:57.780Z,24.38
2019-06-27T02:58:57.837Z,24.39
2019-06-27T02:59:57.580Z,24.35
2019-06-27T03:00:57.873Z,24.35
2019-06-27T03:01:57.614Z,24.33
2019-06-27T03:02:57.645Z,24.29
2019-06-27T03:03:57.664Z,24.4
2019-06-27T03:04:57.698Z,24.35
2019-06-27T03:05:58.007Z,24.3
2019-06-27T03:06:58.019Z,24.29
2019-06-27T03:07:57.783Z,24.29
2019-06-27T03:08:58.059Z,24.29
2019-06-27T03:09:58.103Z,24.35
2019-06-27T03:10:57.852Z,24.17
2019-06-27T03:12:02.698Z,24.2
2019-06-27T03:12:58.162Z,24.21
2019-06-27T03:13:58.197Z,24.23
2019-06-27T03:14:57.953Z,24.17
2019-06-27T03:15:57.998Z,24.24
2019-06-27T03:16:58.339Z,24.28
2019-06-27T03:17:58.073Z,24.14
2019-06-27T03:18:57.789Z,24.23
2019-06-27T03:19:58.354Z,24.16
2019-06-27T03:20:58.401Z,24.16
2019-06-27T03:21:57.871Z,24.21
2019-06-27T03:22:58.156Z,24.14
2019-06-27T03:23:58.440Z,24.18
2019-06-27T03:24:58.223Z,24.18
2019-06-27T03:25:58.234Z,24.18
2019-06-27T03:26:58.520Z,24.14
2019-06-27T03:27:58.552Z,24.1
2019-06-27T03:28:59.133Z,24.05
2019-06-27T03:29:58.343Z,24.14
2019-06-27T03:30:58.422Z,24.11
2019-06-27T03:31:58.680Z,24.16
2019-06-27T03:32:58.494Z,24.2
2019-06-27T03:33:58.568Z,24.13
2019-06-27T03:34:58.733Z,24.08
2019-06-27T03:35:58.880Z,24.11
2019-06-27T03:36:58.783Z,24.14
2019-06-27T03:37:58.836Z,24.1
2019-06-27T03:38:58.828Z,24.13
2019-06-27T03:39:58.881Z,24.16
2019-06-27T03:40:58.622Z,24.1
2019-06-27T03:41:58.636Z,24.17
2019-06-27T03:42:58.678Z,24.14
2019-06-27T03:43:58.731Z,24.1
2019-06-27T03:44:58.728Z,24.11
2019-06-27T03:45:58.745Z,24.05
2019-06-27T03:46:59.046Z,24.02
2019-06-27T03:47:59.070Z,24.01
2019-06-27T03:48:58.830Z,24.03
2019-06-27T03:49:59.109Z,24.08
2019-06-27T03:51:01.285Z,24.08
2019-06-27T03:51:58.893Z,23.99
2019-06-27T03:52:59.185Z,23.99
2019-06-27T03:53:59.284Z,24.01
2019-06-27T03:54:58.713Z,23.99
2019-06-27T03:55:59.006Z,24.03
2019-06-27T03:56:59.028Z,23.98
2019-06-27T03:57:59.052Z,24.03
2019-06-27T03:59:16.866Z,24.08
2019-06-27T03:59:59.099Z,24.06
2019-06-27T04:00:59.151Z,24.01
2019-06-27T04:01:59.150Z,23.99
2019-06-27T04:02:59.434Z,24.05
2019-06-27T04:03:59.201Z,23.93
2019-06-27T04:04:59.490Z,24.01
2019-06-27T04:05:59.534Z,23.98
2019-06-27T04:06:59.644Z,24.02
2019-06-27T04:07:59.321Z,23.93
2019-06-27T04:08:59.330Z,23.99
2019-06-27T04:09:59.362Z,23.95
2019-06-27T04:10:59.668Z,23.93
2019-06-27T04:11:59.732Z,23.92
2019-06-27T04:12:59.437Z,23.93
2019-06-27T04:13:59.462Z,23.98
2019-06-27T04:14:59.485Z,23.92
2019-06-27T04:15:59.514Z,23.93
2019-06-27T04:16:59.539Z,23.95
2019-06-27T04:17:59.570Z,23.93
2019-06-27T04:18:59.841Z,23.95
2019-06-27T04:19:59.620Z,23.99
2019-06-27T04:20:59.895Z,23.96
2019-06-27T04:21:59.662Z,23.92
2019-06-27T04:22:59.965Z,23.88
2019-06-27T04:23:59.721Z,23.95
2019-06-27T04:25:00.001Z,23.91
2019-06-27T04:25:59.810Z,23.92
2019-06-27T04:27:00.060Z,23.91
2019-06-27T04:28:04.984Z,23.91
2019-06-27T04:28:59.850Z,23.96
2019-06-27T04:29:59.892Z,23.91
2019-06-27T04:30:59.923Z,23.98
2019-06-27T04:31:59.920Z,23.95
2019-06-27T04:33:00.241Z,23.93
2019-06-27T04:34:00.227Z,23.92
2019-06-27T04:34:59.748Z,23.95
2019-06-27T04:36:00.048Z,23.93
2019-06-27T04:37:00.309Z,23.95
2019-06-27T04:38:00.068Z,24.01
2019-06-27T04:39:00.097Z,24.18
2019-06-27T04:40:00.139Z,24.3
2019-06-27T04:41:00.148Z,24.33
2019-06-27T04:42:00.445Z,24.5
2019-06-27T04:43:04.981Z,24.63
2019-06-27T04:44:00.224Z,24.7
2019-06-27T04:45:00.545Z,24.85
2019-06-27T04:46:00.286Z,24.88
2019-06-27T04:47:00.313Z,24.96
2019-06-27T04:48:00.340Z,24.98
2019-06-27T04:49:00.677Z,24.99
2019-06-27T04:50:00.138Z,24.99
2019-06-27T04:51:00.667Z,25.03
2019-06-27T04:52:00.437Z,25.03
2019-06-27T04:53:00.475Z,24.99
2019-06-27T04:54:00.482Z,25.04
2019-06-27T04:55:05.913Z,24.93
2019-06-27T04:56:00.833Z,24.89
2019-06-27T04:57:00.569Z,24.92
2019-06-27T04:58:00.593Z,24.88
2019-06-27T04:59:00.888Z,24.78
2019-06-27T05:00:00.637Z,24.84
2019-06-27T05:01:01.086Z,24.74
2019-06-27T05:02:00.959Z,24.77
2019-06-27T05:03:00.712Z,24.73
2019-06-27T05:04:01.013Z,24.77
2019-06-27T05:05:01.024Z,24.7
2019-06-27T05:06:01.050Z,24.58
2019-06-27T05:07:01.081Z,24.61
2019-06-27T05:08:01.122Z,24.5
2019-06-27T05:09:01.137Z,24.45
2019-06-27T05:10:01.170Z,24.48
2019-06-27T05:11:00.927Z,24.51
2019-06-27T05:12:00.692Z,24.4
2019-06-27T05:13:00.995Z,24.42
2019-06-27T05:14:00.735Z,24.42
2019-06-27T05:15:00.768Z,24.42
2019-06-27T05:16:01.046Z,24.4
2019-06-27T05:17:01.080Z,24.35
2019-06-27T05:18:01.142Z,24.38
2019-06-27T05:19:01.384Z,24.32
2019-06-27T05:20:05.452Z,24.36
2019-06-27T05:21:01.437Z,24.35
2019-06-27T05:22:01.197Z,24.3
2019-06-27T05:23:01.499Z,24.32
2019-06-27T05:24:01.634Z,24.33
2019-06-27T05:25:01.282Z,24.28
2019-06-27T05:26:01.582Z,24.29
2019-06-27T05:27:01.337Z,24.3
2019-06-27T05:28:01.354Z,24.23
2019-06-27T05:29:01.137Z,24.26
2019-06-27T05:30:14.035Z,24.18
2019-06-27T05:31:01.789Z,24.24
2019-06-27T05:32:01.235Z,24.16
2019-06-27T05:33:01.743Z,24.33
2019-06-27T05:34:01.247Z,24.24
2019-06-27T05:35:01.278Z,24.2
2019-06-27T05:36:04.918Z,24.24
2019-06-27T05:37:01.888Z,24.21
2019-06-27T05:38:01.924Z,24.26
2019-06-27T05:39:01.656Z,24.17
2019-06-27T05:40:01.668Z,24.14
2019-06-27T05:41:01.950Z,24.29
2019-06-27T05:42:01.710Z,24.17
2019-06-27T05:43:02.003Z,24.16
2019-06-27T05:44:01.765Z,24.16
2019-06-27T05:45:01.563Z,24.21
2019-06-27T05:46:01.816Z,24.2
2019-06-27T05:47:01.843Z,24.13
2019-06-27T05:48:01.873Z,24.18
2019-06-27T05:49:01.900Z,24.23
2019-06-27T05:50:02.274Z,24.17
2019-06-27T05:51:02.267Z,24.23
2019-06-27T05:52:02.023Z,24.28
2019-06-27T05:53:01.994Z,24.29
2019-06-27T05:54:01.775Z,24.3
2019-06-27T05:55:02.430Z,24.29
2019-06-27T05:56:02.385Z,24.33
2019-06-27T05:57:02.367Z,24.43
2019-06-27T05:58:02.123Z,24.45
2019-06-27T05:59:02.446Z,24.48
2019-06-27T06:00:02.209Z,24.53
2019-06-27T06:01:02.216Z,24.53
2019-06-27T06:02:02.508Z,24.6
2019-06-27T06:03:02.264Z,24.54
2019-06-27T06:04:02.544Z,24.63
2019-06-27T06:05:02.398Z,24.61
2019-06-27T06:06:02.332Z,24.66
2019-06-27T06:07:02.432Z,24.68
2019-06-27T06:08:02.646Z,24.65
2019-06-27T06:09:02.669Z,24.6
2019-06-27T06:10:02.468Z,24.63
2019-06-27T06:11:02.719Z,24.68
2019-06-27T06:12:02.624Z,24.65
2019-06-27T06:13:02.545Z,24.61
2019-06-27T06:14:02.511Z,24.6
2019-06-27T06:15:02.562Z,24.66
2019-06-27T06:16:06.005Z,24.63
2019-06-27T06:17:02.878Z,24.61
2019-06-27T06:18:02.640Z,24.66
2019-06-27T06:19:02.403Z,24.55
2019-06-27T06:20:02.437Z,24.58
2019-06-27T06:21:03.002Z,24.6
2019-06-27T06:22:03.004Z,24.58
2019-06-27T06:23:03.040Z,24.55
2019-06-27T06:24:02.800Z,24.57
2019-06-27T06:25:03.335Z,24.61
2019-06-27T06:26:03.110Z,24.61
2019-06-27T06:27:02.902Z,24.63
2019-06-27T06:28:02.902Z,24.63
2019-06-27T06:29:03.198Z,24.65
2019-06-27T06:30:02.951Z,24.6
2019-06-27T06:31:02.985Z,24.63
2019-06-27T06:32:03.284Z,24.63
2019-06-27T06:33:03.053Z,24.6
2019-06-27T06:34:03.140Z,24.65
2019-06-27T06:35:03.431Z,24.61
2019-06-27T06:36:02.848Z,24.61
2019-06-27T06:37:03.464Z,24.6
2019-06-27T06:38:03.158Z,24.68
2019-06-27T06:39:03.186Z,24.63
2019-06-27T06:40:02.952Z,24.61
2019-06-27T06:41:03.497Z,24.69
2019-06-27T06:42:03.297Z,24.66
2019-06-27T06:43:05.260Z,24.63
2019-06-27T06:44:03.054Z,24.58
2019-06-27T06:45:03.431Z,24.66
2019-06-27T06:46:03.637Z,24.66
2019-06-27T06:47:03.774Z,24.63
2019-06-27T06:48:03.460Z,24.73
2019-06-27T06:49:03.712Z,24.76
2019-06-27T06:50:03.767Z,24.77
2019-06-27T06:51:03.510Z,24.7
2019-06-27T06:52:03.534Z,24.73
2019-06-27T06:53:03.823Z,24.66
2019-06-27T06:54:03.831Z,24.7
2019-06-27T06:55:03.712Z,24.65
2019-06-27T06:56:03.898Z,24.73
2019-06-27T06:57:03.707Z,24.66
2019-06-27T06:58:03.963Z,24.8
2019-06-27T06:59:03.977Z,24.81
2019-06-27T07:00:04.002Z,24.8
2019-06-27T07:01:07.223Z,24.78
2019-06-27T07:02:04.105Z,24.8
2019-06-27T07:03:03.897Z,24.85
2019-06-27T07:04:04.155Z,24.84
2019-06-27T07:05:03.882Z,24.81
2019-06-27T07:06:04.175Z,24.81
2019-06-27T07:07:04.182Z,24.81
2019-06-27T07:08:03.679Z,24.78
2019-06-27T07:09:03.704Z,24.84
2019-06-27T07:10:04.295Z,24.85
2019-06-27T07:11:04.017Z,24.76
2019-06-27T07:12:04.340Z,24.85
2019-06-27T07:13:04.399Z,24.84
2019-06-27T07:14:04.363Z,24.81
2019-06-27T07:15:04.441Z,24.77
2019-06-27T07:16:04.407Z,24.8
2019-06-27T07:17:04.515Z,24.85
2019-06-27T07:18:04.467Z,24.88
2019-06-27T07:19:04.497Z,24.78
2019-06-27T07:20:04.414Z,24.84
2019-06-27T07:21:04.552Z,24.81
2019-06-27T07:22:04.062Z,24.84
2019-06-27T07:23:05.073Z,24.81
2019-06-27T07:24:04.617Z,24.78
2019-06-27T07:25:04.691Z,24.8
2019-06-27T07:26:04.433Z,24.85
2019-06-27T07:27:04.717Z,24.85
2019-06-27T07:28:04.762Z,24.81
2019-06-27T07:29:04.926Z,24.84
2019-06-27T07:30:04.512Z,24.85
2019-06-27T07:31:19.719Z,24.84
2019-06-27T07:32:04.577Z,24.86
2019-06-27T07:33:04.593Z,24.8
2019-06-27T07:34:04.358Z,24.81
2019-06-27T07:35:04.900Z,24.8
2019-06-27T07:36:05.005Z,24.78
2019-06-27T07:37:04.952Z,24.81
2019-06-27T07:38:04.718Z,24.85
2019-06-27T07:39:05.044Z,24.81
2019-06-27T07:40:05.081Z,24.85
2019-06-27T07:41:05.068Z,24.84
2019-06-27T07:42:04.819Z,24.85
2019-06-27T07:43:04.864Z,24.84
2019-06-27T07:44:05.183Z,24.85
2019-06-27T07:45:04.906Z,24.78
2019-06-27T07:46:05.216Z,24.78
2019-06-27T07:47:04.954Z,24.89
2019-06-27T07:48:05.239Z,24.84
2019-06-27T07:49:04.739Z,24.8
2019-06-27T07:50:05.033Z,24.85
2019-06-27T07:51:05.054Z,24.8
2019-06-27T07:52:05.146Z,24.85
2019-06-27T07:53:05.393Z,24.85
2019-06-27T07:54:05.608Z,24.8
2019-06-27T07:55:04.909Z,24.85
2019-06-27T07:56:05.177Z,24.85
2019-06-27T07:57:05.479Z,24.84
2019-06-27T07:58:05.240Z,24.89
2019-06-27T07:59:05.520Z,24.84
2019-06-27T08:00:05.639Z,24.77
2019-06-27T08:01:05.577Z,24.81
2019-06-27T08:02:05.339Z,24.81
2019-06-27T08:03:05.358Z,24.81
2019-06-27T08:04:05.390Z,24.86
2019-06-27T08:05:05.455Z,24.84
2019-06-27T08:06:05.470Z,24.85
2019-06-27T08:07:05.470Z,24.84
2019-06-27T08:08:05.961Z,24.78
2019-06-27T08:09:05.982Z,24.88
2019-06-27T08:10:05.820Z,24.8
2019-06-27T08:11:05.576Z,24.93
2019-06-27T08:12:05.593Z,24.92
2019-06-27T08:13:05.629Z,24.85
2019-06-27T08:14:05.917Z,24.89
2019-06-27T08:15:05.983Z,24.91
2019-06-27T08:16:05.963Z,24.96
2019-06-27T08:17:05.995Z,24.91
2019-06-27T08:18:05.789Z,24.89
2019-06-27T08:19:05.799Z,24.93
2019-06-27T08:20:05.877Z,24.91
2019-06-27T08:21:06.147Z,24.88
2019-06-27T08:22:06.121Z,24.88
2019-06-27T08:23:05.894Z,24.81
2019-06-27T08:24:05.962Z,24.93
2019-06-27T08:25:06.372Z,24.92
2019-06-27T08:26:05.959Z,24.99
2019-06-27T08:27:06.255Z,25.03
2019-06-27T08:28:06.024Z,24.98
2019-06-27T08:29:06.389Z,24.99
2019-06-27T08:30:10.503Z,24.96
2019-06-27T08:31:06.092Z,24.98
2019-06-27T08:32:06.398Z,24.99
2019-06-27T08:33:06.414Z,24.96
2019-06-27T08:34:06.426Z,24.96
2019-06-27T08:35:06.646Z,25.01
2019-06-27T08:36:06.213Z,24.98
2019-06-27T08:37:06.505Z,25.04
2019-06-27T08:38:06.558Z,25.04
2019-06-27T08:39:06.559Z,25.03
2019-06-27T08:40:06.351Z,25.03
2019-06-27T08:41:06.363Z,25.07
2019-06-27T08:42:06.667Z,25.03
2019-06-27T08:43:06.390Z,25.01
2019-06-27T08:44:06.684Z,25.03
2019-06-27T08:45:06.454Z,25.1
2019-06-27T08:46:06.753Z,25.06
2019-06-27T08:47:06.501Z,25.06
2019-06-27T08:48:06.788Z,25.11
2019-06-27T08:49:06.542Z,25.11
2019-06-27T08:50:06.863Z,25.1
2019-06-27T08:51:06.869Z,25.13
2019-06-27T08:52:06.364Z,25.17
2019-06-27T08:53:06.914Z,25.13
2019-06-27T08:54:06.940Z,25.18
2019-06-27T08:55:06.962Z,25.13
2019-06-27T08:56:06.725Z,25.18
2019-06-27T08:57:06.762Z,25.13
2019-06-27T08:58:07.137Z,25.18
2019-06-27T08:59:06.542Z,25.1
2019-06-27T09:00:07.341Z,25.17
2019-06-27T09:01:07.129Z,25.21
2019-06-27T09:02:14.023Z,25.22
2019-06-27T09:03:07.085Z,25.22
2019-06-27T09:04:07.013Z,25.16
2019-06-27T09:05:06.957Z,25.22
2019-06-27T09:06:07.042Z,25.21
2019-06-27T09:07:07.301Z,25.16
2019-06-27T09:08:07.361Z,25.22
2019-06-27T09:09:06.836Z,25.23
2019-06-27T09:10:07.098Z,25.18
2019-06-27T09:11:07.402Z,25.32
2019-06-27T09:12:06.878Z,25.29
2019-06-27T09:13:07.478Z,25.31
2019-06-27T09:14:07.213Z,25.22
2019-06-27T09:15:07.229Z,25.22
2019-06-27T09:16:06.996Z,25.25
2019-06-27T09:17:07.278Z,25.38
2019-06-27T09:18:07.038Z,25.32
2019-06-27T09:19:07.333Z,25.35
2019-06-27T09:20:07.623Z,25.33
2019-06-27T09:21:07.381Z,25.29
2019-06-27T09:22:07.666Z,25.35
2019-06-27T09:23:07.447Z,25.35
2019-06-27T09:24:07.722Z,25.35
2019-06-27T09:25:07.479Z,25.31
2019-06-27T09:26:07.815Z,25.28
2019-06-27T09:27:07.818Z,25.26
2019-06-27T09:28:07.600Z,25.4
2019-06-27T09:29:07.593Z,25.4
2019-06-27T09:30:07.909Z,25.32
2019-06-27T09:31:07.932Z,25.4
2019-06-27T09:32:20.881Z,25.35
2019-06-27T09:33:07.966Z,25.43
2019-06-27T09:34:07.845Z,25.43
2019-06-27T09:35:08.000Z,25.44
2019-06-27T09:36:08.026Z,25.43
2019-06-27T09:37:07.803Z,25.43
2019-06-27T09:38:08.094Z,25.4
2019-06-27T09:39:07.844Z,25.44
2019-06-27T09:40:07.609Z,25.43
2019-06-27T09:41:07.899Z,25.44
2019-06-27T09:42:08.463Z,25.44
2019-06-27T09:43:08.211Z,25.41
2019-06-27T09:44:08.241Z,25.47
2019-06-27T09:45:08.417Z,25.46
2019-06-27T09:46:08.026Z,25.48
2019-06-27T09:47:08.521Z,25.5
2019-06-27T09:48:08.076Z,25.58
2019-06-27T09:49:08.377Z,25.55
2019-06-27T09:50:07.869Z,25.48
2019-06-27T09:51:08.164Z,25.51
2019-06-27T09:52:08.183Z,25.54
2019-06-27T09:53:08.210Z,25.48
2019-06-27T09:54:08.244Z,25.5
2019-06-27T09:55:08.521Z,25.46
2019-06-27T09:56:08.556Z,25.51
2019-06-27T09:57:08.327Z,25.58
2019-06-27T09:58:08.600Z,25.48
2019-06-27T09:59:08.105Z,25.48
2019-06-27T10:00:08.657Z,25.48
2019-06-27T10:01:11.004Z,25.6
2019-06-27T10:02:08.448Z,25.5
2019-06-27T10:03:08.468Z,25.53
2019-06-27T10:04:08.781Z,25.58
2019-06-27T10:05:08.788Z,25.5
2019-06-27T10:06:08.551Z,25.54
2019-06-27T10:07:08.576Z,25.59
2019-06-27T10:08:08.859Z,25.58
2019-06-27T10:09:08.890Z,25.54
2019-06-27T10:10:08.391Z,25.51
2019-06-27T10:11:08.680Z,25.59
2019-06-27T10:12:08.729Z,25.58
2019-06-27T10:13:08.992Z,25.63
2019-06-27T10:14:09.075Z,25.63
2019-06-27T10:15:09.093Z,25.62
2019-06-27T10:16:08.816Z,25.54
2019-06-27T10:17:09.138Z,25.62
2019-06-27T10:18:08.911Z,25.68
2019-06-27T10:19:08.934Z,25.63
2019-06-27T10:20:08.925Z,25.63
2019-06-27T10:21:09.213Z,25.65
2019-06-27T10:22:09.230Z,25.66
2019-06-27T10:23:08.999Z,25.65
2019-06-27T10:24:09.093Z,25.68
2019-06-27T10:25:09.446Z,25.62
2019-06-27T10:26:09.075Z,25.68
2019-06-27T10:27:09.362Z,25.7
2019-06-27T10:28:09.392Z,25.72
2019-06-27T10:29:09.419Z,25.7
2019-06-27T10:30:09.442Z,25.68
2019-06-27T10:31:09.473Z,25.7
2019-06-27T10:32:08.980Z,25.7
2019-06-27T10:33:09.534Z,25.7
2019-06-27T10:34:09.438Z,25.72
2019-06-27T10:35:09.082Z,25.73
2019-06-27T10:36:09.738Z,25.68
2019-06-27T10:37:09.631Z,25.69
2019-06-27T10:38:09.419Z,25.68
2019-06-27T10:39:09.182Z,25.68
2019-06-27T10:40:09.447Z,25.69
2019-06-27T10:41:09.471Z,25.66
2019-06-27T10:42:09.507Z,25.68
2019-06-27T10:43:09.662Z,25.72
2019-06-27T10:44:09.813Z,25.78
2019-06-27T10:45:09.424Z,25.75
2019-06-27T10:46:09.612Z,25.78
2019-06-27T10:47:09.373Z,25.83
2019-06-27T10:48:09.670Z,25.83
2019-06-27T10:49:09.701Z,25.81
2019-06-27T10:50:09.974Z,25.87
2019-06-27T10:51:09.737Z,25.87
2019-06-27T10:52:10.080Z,25.81
2019-06-27T10:53:09.804Z,25.9
2019-06-27T10:54:10.082Z,25.84
2019-06-27T10:55:10.125Z,25.84
2019-06-27T10:56:10.139Z,25.87
2019-06-27T10:57:10.163Z,25.83
2019-06-27T10:58:09.939Z,25.95
2019-06-27T10:59:10.385Z,25.81
2019-06-27T11:00:10.282Z,25.87
2019-06-27T11:01:10.009Z,25.8
2019-06-27T11:02:10.293Z,25.81
2019-06-27T11:03:20.394Z,25.87
2019-06-27T11:04:10.341Z,25.9
2019-06-27T11:05:10.213Z,25.88
2019-06-27T11:06:10.144Z,25.88
2019-06-27T11:07:09.903Z,25.88
2019-06-27T11:08:10.207Z,25.85
2019-06-27T11:09:10.230Z,25.9
2019-06-27T11:10:10.507Z,25.91
2019-06-27T11:11:10.531Z,25.99
2019-06-27T11:12:10.557Z,25.93
2019-06-27T11:13:10.328Z,25.93
2019-06-27T11:14:10.633Z,25.91
2019-06-27T11:15:10.405Z,25.95
2019-06-27T11:16:10.473Z,25.91
2019-06-27T11:17:10.439Z,25.96
2019-06-27T11:18:10.206Z,25.95
2019-06-27T11:19:10.489Z,25.91
2019-06-27T11:20:10.598Z,25.95
2019-06-27T11:21:13.692Z,25.99
2019-06-27T11:22:10.827Z,25.91
2019-06-27T11:23:10.946Z,25.95
2019-06-27T11:24:10.355Z,25.95
2019-06-27T11:25:10.665Z,26
2019-06-27T11:26:14.293Z,26.02
2019-06-27T11:27:10.701Z,25.88
2019-06-27T11:28:12.802Z,25.95
2019-06-27T11:29:10.758Z,25.99
2019-06-27T11:30:11.822Z,25.98
2019-06-27T11:31:10.800Z,25.99
2019-06-27T11:32:11.108Z,26.06
2019-06-27T11:33:10.873Z,26.02
2019-06-27T11:34:11.133Z,26.02
2019-06-27T11:35:11.166Z,26.02
2019-06-27T11:36:11.200Z,26.02
2019-06-27T11:37:10.731Z,26.06
2019-06-27T11:38:11.334Z,25.96
2019-06-27T11:39:11.008Z,26.05
2019-06-27T11:40:14.702Z,26.05
2019-06-27T11:41:10.809Z,26.03
2019-06-27T11:42:11.355Z,26.07
2019-06-27T11:43:11.120Z,26.06
2019-06-27T11:44:11.410Z,26.07
2019-06-27T11:45:11.449Z,26.1
2019-06-27T11:46:13.589Z,26.07
2019-06-27T11:47:11.234Z,26.09
2019-06-27T11:48:10.994Z,26.15
2019-06-27T11:49:11.570Z,26.13
2019-06-27T11:50:12.139Z,26.1
2019-06-27T11:51:11.343Z,26.09
2019-06-27T11:52:11.653Z,26.1
2019-06-27T11:53:11.392Z,26.21
2019-06-27T11:54:11.677Z,26.13
2019-06-27T11:55:11.433Z,26.16
2019-06-27T11:56:11.732Z,26.09
2019-06-27T11:57:11.752Z,26.15
2019-06-27T11:58:11.797Z,26.19
2019-06-27T11:59:11.608Z,26.15
2019-06-27T12:00:11.579Z,26.22
2019-06-27T12:01:11.590Z,26.15
2019-06-27T12:02:11.702Z,26.19
2019-06-27T12:03:11.932Z,26.22
2019-06-27T12:04:11.677Z,26.23
2019-06-27T12:05:11.966Z,26.26
2019-06-27T12:06:11.466Z,26.29
2019-06-27T12:07:11.808Z,26.26
2019-06-27T12:08:15.809Z,26.28
2019-06-27T12:09:12.161Z,26.23
2019-06-27T12:10:12.098Z,26.23
2019-06-27T12:11:11.862Z,26.25
2019-06-27T12:12:11.884Z,26.29
2019-06-27T12:13:12.199Z,26.38
2019-06-27T12:14:12.199Z,26.33
2019-06-27T12:15:12.240Z,26.34
2019-06-27T12:16:12.295Z,26.38
2019-06-27T12:17:12.024Z,26.29
2019-06-27T12:18:12.350Z,26.31
2019-06-27T12:19:12.375Z,26.37
2019-06-27T12:20:12.370Z,26.37
2019-06-27T12:21:12.126Z,26.41
2019-06-27T12:22:11.888Z,26.44
2019-06-27T12:23:11.925Z,26.51
2019-06-27T12:24:12.513Z,26.43
2019-06-27T12:25:12.227Z,26.51
2019-06-27T12:26:12.266Z,26.48
2019-06-27T12:27:12.299Z,26.48
2019-06-27T12:28:12.570Z,26.47
2019-06-27T12:29:12.600Z,26.48
2019-06-27T12:30:12.437Z,26.56
2019-06-27T12:31:25.127Z,26.45
2019-06-27T12:32:12.695Z,26.44
2019-06-27T12:33:12.702Z,26.48
2019-06-27T12:34:12.847Z,26.58
2019-06-27T12:35:12.755Z,26.59
2019-06-27T12:36:12.781Z,26.56
2019-06-27T12:37:12.546Z,26.6
2019-06-27T12:38:12.575Z,26.59
2019-06-27T12:39:12.869Z,26.65
2019-06-27T12:40:12.989Z,26.62
2019-06-27T12:41:12.424Z,26.68
2019-06-27T12:42:12.422Z,26.74
2019-06-27T12:43:16.784Z,26.73
2019-06-27T12:44:12.477Z,26.73
2019-06-27T12:45:12.758Z,26.77
2019-06-27T12:46:12.788Z,26.74
2019-06-27T12:47:13.086Z,26.75
2019-06-27T12:48:12.844Z,26.81
2019-06-27T12:49:12.644Z,26.84
2019-06-27T12:50:12.671Z,26.88
2019-06-27T12:51:12.921Z,26.93
2019-06-27T12:52:13.248Z,26.89
2019-06-27T12:53:13.240Z,26.9
2019-06-27T12:54:13.337Z,26.96
2019-06-27T12:55:12.771Z,26.9
2019-06-27T12:56:13.323Z,26.99